Map

Track Data

SID SEASON NUMBER BASIN SUBBASIN NAME ISO_TIME NATURE LAT LON WMO_WIND WMO_PRES WMO_AGENCY TRACK_TYPE DIST2LAND LANDFALL IFLAG USA_AGENCY USA_ATCF_ID USA_LAT USA_LON USA_RECORD USA_STATUS USA_WIND USA_PRES USA_SSHS USA_R34_NE USA_R34_SE USA_R34_SW USA_R34_NW USA_R50_NE USA_R50_SE USA_R50_SW USA_R50_NW USA_R64_NE USA_R64_SE USA_R64_SW USA_R64_NW USA_POCI USA_ROCI USA_RMW USA_EYE TOKYO_LAT TOKYO_LON TOKYO_GRADE TOKYO_WIND TOKYO_PRES TOKYO_R50_DIR TOKYO_R50_LONG TOKYO_R50_SHORT TOKYO_R30_DIR TOKYO_R30_LONG TOKYO_R30_SHORT TOKYO_LAND CMA_LAT CMA_LON CMA_CAT CMA_WIND CMA_PRES HKO_LAT HKO_LON HKO_CAT HKO_WIND HKO_PRES NEWDELHI_LAT NEWDELHI_LON NEWDELHI_GRADE NEWDELHI_WIND NEWDELHI_PRES NEWDELHI_CI NEWDELHI_DP NEWDELHI_POCI REUNION_LAT REUNION_LON REUNION_TYPE REUNION_WIND REUNION_PRES REUNION_TNUM REUNION_CI REUNION_RMW REUNION_R34_NE REUNION_R34_SE REUNION_R34_SW REUNION_R34_NW REUNION_R50_NE REUNION_R50_SE REUNION_R50_SW REUNION_R50_NW REUNION_R64_NE REUNION_R64_SE REUNION_R64_SW REUNION_R64_NW BOM_LAT BOM_LON BOM_TYPE BOM_WIND BOM_PRES BOM_TNUM BOM_CI BOM_RMW BOM_R34_NE BOM_R34_SE BOM_R34_SW BOM_R34_NW BOM_R50_NE BOM_R50_SE BOM_R50_SW BOM_R50_NW BOM_R64_NE BOM_R64_SE BOM_R64_SW BOM_R64_NW BOM_ROCI BOM_POCI BOM_EYE BOM_POS_METHOD BOM_PRES_METHOD NADI_LAT NADI_LON NADI_CAT NADI_WIND NADI_PRES WELLINGTON_LAT WELLINGTON_LON WELLINGTON_WIND WELLINGTON_PRES DS824_LAT DS824_LON DS824_STAGE DS824_WIND DS824_PRES TD9636_LAT TD9636_LON TD9636_STAGE TD9636_WIND TD9636_PRES TD9635_LAT TD9635_LON TD9635_WIND TD9635_PRES TD9635_ROCI NEUMANN_LAT NEUMANN_LON NEUMANN_CLASS NEUMANN_WIND NEUMANN_PRES MLC_LAT MLC_LON MLC_CLASS MLC_WIND MLC_PRES USA_GUST BOM_GUST BOM_GUST_PER REUNION_GUST REUNION_GUST_PER USA_SEAHGT USA_SEARAD_NE USA_SEARAD_SE USA_SEARAD_SW USA_SEARAD_NW STORM_SPEED STORM_DIR
1975252N19086 1975 91 NI BB NOT_NAMED 1975-09-09 00:00:00 TS 18.8000 86.3000 main 123 88 O________OO___ jtwc_io IO121975 18.8000 86.3000 -1 18.8000 86.3000 TC 25 18.8000 86.3000 1 9 22
1975252N19086 1975 91 NI BB NOT_NAMED 1975-09-09 03:00:00 TS 19.1982 86.4718 main 88 49 P________PP___ IO121975 19.2101 86.5047 -1 19.2101 86.5047 TC 25 19.1744 86.4060 1 8 17
1975252N19086 1975 91 NI BB NOT_NAMED 1975-09-09 06:00:00 TS 19.5830 86.5533 main 49 15 O________OP___ jtwc_io IO121975 19.6000 86.6000 -1 19.6000 86.6000 TC 25 19.5490 86.4600 1 8 0
1975252N19086 1975 91 NI BB NOT_NAMED 1975-09-09 09:00:00 TS 19.9462 86.4680 main 15 0 P________PP___ IO121975 19.9573 86.4974 -1 19.9573 86.4974 TC 25 19.9241 86.4092 1 8 335
1975252N19086 1975 91 NI BB NOT_NAMED 1975-09-09 12:00:00 TS 20.3000 86.2000 main 0 0 O________OO___ jtwc_io IO121975 20.3000 86.2000 -1 20.3000 86.2000 TC 25 20.3000 86.2000 1 10 318
1975252N19086 1975 91 NI BB NOT_NAMED 1975-09-09 15:00:00 TS 20.6628 85.7685 main 0 0 P________PP___ IO121975 20.6576 85.7526 -1 20.6576 85.7526 TC 25 20.6731 85.8003 1 12 308
1975252N19086 1975 91 NI BB NOT_NAMED 1975-09-09 18:00:00 TS 21.0089 85.2217 main 0 0 O________OP___ jtwc_io IO121975 21.0000 85.2000 -1 21.0000 85.2000 TC 25 21.0268 85.2650 1 12 303
1975252N19086 1975 91 NI BB NOT_NAMED 1975-09-09 21:00:00 TS 21.3340 84.6474 main 0 0 P________PP___ IO121975 21.3301 84.6351 -1 21.3301 84.6351 TC 25 21.3419 84.6719 1 12 300
1975252N19086 1975 91 NI BB NOT_NAMED 1975-09-10 00:00:00 TS 21.6000 84.1000 main 0 0 O________OO___ jtwc_io IO121975 21.6000 84.1000 -1 21.6000 84.1000 TC 25 21.6000 84.1000 1 10 297
1975252N19086 1975 91 NI BB NOT_NAMED 1975-09-10 03:00:00 TS 21.7786 83.6925 main 0 0 P________PP___ IO121975 21.7797 83.6772 -1 21.7797 83.6772 TC 25 21.7763 83.7231 1 8 293
1975252N19086 1975 91 NI BB NOT_NAMED 1975-09-10 06:00:00 TS 21.8998 83.3242 main 0 0 O________OP___ jtwc_io IO121975 21.9000 83.3000 -1 21.9000 83.3000 TC 25 21.8993 83.3725 1 7 288
1975252N19086 1975 91 NI BB NOT_NAMED 1975-09-10 09:00:00 TS 21.9988 82.9683 main 0 0 P________PP___ IO121975 21.9993 82.9596 -1 21.9993 82.9596 TC 25 21.9978 82.9857 1 8 285
1975252N19086 1975 91 NI BB NOT_NAMED 1975-09-10 12:00:00 TS 22.1000 82.5000 main 0 0 O________OO___ jtwc_io IO121975 22.1000 82.5000 -1 22.1000 82.5000 TC 25 22.1000 82.5000 1 12 282
1975252N19086 1975 91 NI BB NOT_NAMED 1975-09-10 15:00:00 TS 22.2399 81.7538 main 0 0 P________PP___ IO121975 22.2429 81.7526 -1 22.2429 81.7526 TC 25 22.2337 81.7562 1 15 281
1975252N19086 1975 91 NI BB NOT_NAMED 1975-09-10 18:00:00 TS 22.3915 80.9069 main 0 0 O________OP___ jtwc_io IO121975 22.4000 80.9000 -1 22.4000 80.9000 TC 25 22.3745 80.9207 1 16 281
1975252N19086 1975 91 NI BB NOT_NAMED 1975-09-10 21:00:00 TS 22.5377 80.0833 main 0 0 P________PP___ IO121975 22.5428 80.0750 -1 22.5428 80.0750 TC 25 22.5275 80.0998 1 14 282
1975252N19086 1975 91 NI BB NOT_NAMED 1975-09-11 00:00:00 TS 22.7000 79.4000 main 0 0 O________OO___ jtwc_io IO121975 22.7000 79.4000 -1 22.7000 79.4000 TC 25 22.7000 79.4000 1 11 289
1975252N19086 1975 91 NI BB NOT_NAMED 1975-09-11 03:00:00 TS 22.8845 79.0090 main 0 0 P________PP___ IO121975 22.8844 79.0322 -1 22.8844 79.0322 TC 25 22.8849 78.9625 1 7 304
1975252N19086 1975 91 NI BB NOT_NAMED 1975-09-11 06:00:00 TS 23.0982 78.7520 main 0 0 O________OP___ jtwc_io IO121975 23.1000 78.8000 -1 23.1000 78.8000 TC 25 23.0947 78.6561 1 7 312
1975252N19086 1975 91 NI BB NOT_NAMED 1975-09-11 09:00:00 TS 23.3291 78.4738 main 0 0 P________PP___ IO121975 23.3274 78.4998 -1 23.3274 78.4998 TC 25 23.3324 78.4218 1 7 315
1975252N19086 1975 91 NI BB NOT_NAMED 1975-09-11 12:00:00 TS 23.6000 78.2000 main 0 0 O________OO___ jtwc_io IO121975 23.6000 78.2000 -1 23.6000 78.2000 TC 25 23.6000 78.2000 1 8 319
1975252N19086 1975 91 NI AS NOT_NAMED 1975-09-11 15:00:00 TS 23.9352 77.8921 main 0 0 P________PP___ IO121975 23.9424 77.9000 -1 23.9424 77.9000 TC 25 23.9207 77.8763 1 9 321
1975252N19086 1975 91 NI AS NOT_NAMED 1975-09-11 18:00:00 TS 24.2884 77.5853 main 0 0 O________OP___ jtwc_io IO121975 24.3000 77.6000 -1 24.3000 77.6000 TC 25 24.2652 77.5560 1 9 321
1975252N19086 1975 91 NI AS NOT_NAMED 1975-09-11 21:00:00 TS 24.6207 77.2759 main 0 0 P________PP___ IO121975 24.6300 77.2850 -1 24.6300 77.2850 TC 25 24.6020 77.2575 1 8 319
1975252N19086 1975 91 NI AS NOT_NAMED 1975-09-12 00:00:00 TS 24.9000 77.0000 main 0 0 O________OO___ jtwc_io IO121975 24.9000 77.0000 -1 24.9000 77.0000 TC 25 24.9000 77.0000 1 6 316
1975252N19086 1975 91 NI AS NOT_NAMED 1975-09-12 03:00:00 TS 25.0826 76.7778 main 0 0 P________PP___ IO121975 25.0649 76.7698 -1 25.0649 76.7698 TC 25 25.1178 76.7939 1 5 313
1975252N19086 1975 91 NI AS NOT_NAMED 1975-09-12 06:00:00 TS 25.2315 76.6105 main 0 0 O________OP___ jtwc_io IO121975 25.2000 76.6000 -1 25.2000 76.6000 TC 25 25.2946 76.6316 1 4 322
1975252N19086 1975 91 NI AS NOT_NAMED 1975-09-12 09:00:00 TS 25.4164 76.4911 main 0 0 P________PP___ IO121975 25.4000 76.4849 -1 25.4000 76.4849 TC 25 25.4492 76.5035 1 4 333
1975252N19086 1975 91 NI AS NOT_NAMED 1975-09-12 12:00:00 TS 25.6000 76.4000 main 0 0 O________OO___ jtwc_io IO121975 25.6000 76.4000 -1 25.6000 76.4000 TC 25 25.6000 76.4000 1 4 333
1975252N19086 1975 91 NI AS NOT_NAMED 1975-09-12 15:00:00 TS 25.7540 76.2990 main 0 0 P________PP___ IO121975 25.7500 76.2925 -1 25.7500 76.2925 TC 25 25.7620 76.3122 1 4 332
1975252N19086 1975 91 NI AS NOT_NAMED 1975-09-12 18:00:00 TS 25.9117 76.2118 main 0 0 O________OP___ jtwc_io IO121975 25.9000 76.2000 -1 25.9000 76.2000 TC 25 25.9351 76.2354 1 4 338
1975252N19086 1975 91 NI AS NOT_NAMED 1975-09-12 21:00:00 TS 26.0969 76.1487 main 0 0 P________PP___ IO121975 26.0875 76.1400 -1 26.0875 76.1400 TC 25 26.1157 76.1659 1 4 346
1975252N19086 1975 91 NI AS NOT_NAMED 1975-09-13 00:00:00 TS 26.3000 76.1000 main 0 O________OO___ jtwc_io IO121975 26.3000 76.1000 -1 26.3000 76.1000 TC 25 26.3000 76.1000 6 4 351

About IBTrACS Database

This database is a web-friendly format of International Best Track Archive for Climate Stewardship (IBTrACS), a global best track data archive curated by NOAA dating back to 1842.

Updated: 2021-11-26